sensor_id;sensor_type;location;lat;lon;timestamp;P1;durP1;ratioP1;P2;durP2;ratioP2
71164;SDS011;58859;55.132;-1.586;2024-01-27T00:00:17;3.53;;;1.17;;
71164;SDS011;58859;55.132;-1.586;2024-01-27T00:02:43;4.50;;;1.15;;
71164;SDS011;58859;55.132;-1.586;2024-01-27T00:05:08;4.10;;;1.35;;
71164;SDS011;58859;55.132;-1.586;2024-01-27T00:07:34;4.43;;;1.10;;
71164;SDS011;58859;55.132;-1.586;2024-01-27T00:09:59;3.17;;;1.13;;
71164;SDS011;58859;55.132;-1.586;2024-01-27T00:12:25;6.60;;;1.17;;
71164;SDS011;58859;55.132;-1.586;2024-01-27T00:14:51;3.27;;;0.90;;
71164;SDS011;58859;55.132;-1.586;2024-01-27T00:17:16;3.17;;;0.93;;
71164;SDS011;58859;55.132;-1.586;2024-01-27T00:19:42;4.13;;;1.30;;
71164;SDS011;58859;55.132;-1.586;2024-01-27T00:22:07;5.53;;;1.43;;
71164;SDS011;58859;55.132;-1.586;2024-01-27T00:24:34;5.95;;;1.77;;
71164;SDS011;58859;55.132;-1.586;2024-01-27T00:27:00;2.50;;;1.17;;
71164;SDS011;58859;55.132;-1.586;2024-01-27T00:29:25;6.32;;;1.58;;
71164;SDS011;58859;55.132;-1.586;2024-01-27T00:31:51;4.63;;;1.63;;
71164;SDS011;58859;55.132;-1.586;2024-01-27T00:34:16;8.57;;;1.80;;
71164;SDS011;58859;55.132;-1.586;2024-01-27T00:36:42;4.40;;;1.58;;
71164;SDS011;58859;55.132;-1.586;2024-01-27T00:39:13;6.07;;;1.45;;
71164;SDS011;58859;55.132;-1.586;2024-01-27T00:41:42;5.53;;;1.40;;
71164;SDS011;58859;55.132;-1.586;2024-01-27T00:44:09;4.17;;;1.37;;
71164;SDS011;58859;55.132;-1.586;2024-01-27T00:46:34;5.13;;;1.75;;
71164;SDS011;58859;55.132;-1.586;2024-01-27T00:49:01;7.15;;;1.33;;
71164;SDS011;58859;55.132;-1.586;2024-01-27T00:51:27;3.97;;;1.73;;
71164;SDS011;58859;55.132;-1.586;2024-01-27T00:53:52;5.27;;;1.50;;
71164;SDS011;58859;55.132;-1.586;2024-01-27T00:56:18;3.97;;;1.73;;
71164;SDS011;58859;55.132;-1.586;2024-01-27T00:58:43;5.60;;;1.80;;
71164;SDS011;58859;55.132;-1.586;2024-01-27T01:01:09;5.37;;;2.23;;
71164;SDS011;58859;55.132;-1.586;2024-01-27T01:03:34;4.60;;;1.70;;
71164;SDS011;58859;55.132;-1.586;2024-01-27T01:05:59;4.63;;;1.37;;
71164;SDS011;58859;55.132;-1.586;2024-01-27T01:08:25;7.32;;;1.90;;
71164;SDS011;58859;55.132;-1.586;2024-01-27T01:10:50;6.93;;;1.73;;
71164;SDS011;58859;55.132;-1.586;2024-01-27T01:13:16;3.93;;;1.70;;
71164;SDS011;58859;55.132;-1.586;2024-01-27T01:15:41;5.07;;;1.83;;
71164;SDS011;58859;55.132;-1.586;2024-01-27T01:18:07;8.18;;;1.98;;
71164;SDS011;58859;55.132;-1.586;2024-01-27T01:20:33;4.90;;;1.67;;
71164;SDS011;58859;55.132;-1.586;2024-01-27T01:22:58;6.72;;;2.03;;
71164;SDS011;58859;55.132;-1.586;2024-01-27T01:25:24;2.87;;;1.57;;
71164;SDS011;58859;55.132;-1.586;2024-01-27T01:27:49;5.73;;;1.87;;
71164;SDS011;58859;55.132;-1.586;2024-01-27T01:30:18;4.63;;;1.92;;
71164;SDS011;58859;55.132;-1.586;2024-01-27T01:32:43;5.23;;;1.70;;
71164;SDS011;58859;55.132;-1.586;2024-01-27T01:35:12;2.83;;;1.77;;
71164;SDS011;58859;55.132;-1.586;2024-01-27T01:37:38;4.00;;;1.50;;
71164;SDS011;58859;55.132;-1.586;2024-01-27T01:40:04;4.27;;;1.13;;
71164;SDS011;58859;55.132;-1.586;2024-01-27T01:42:30;2.92;;;1.13;;
71164;SDS011;58859;55.132;-1.586;2024-01-27T01:44:56;2.03;;;1.58;;
71164;SDS011;58859;55.132;-1.586;2024-01-27T01:47:21;1.60;;;1.05;;
71164;SDS011;58859;55.132;-1.586;2024-01-27T01:49:47;0.97;;;0.97;;
71164;SDS011;58859;55.132;-1.586;2024-01-27T01:52:14;2.03;;;0.88;;
71164;SDS011;58859;55.132;-1.586;2024-01-27T01:54:45;4.18;;;0.93;;
71164;SDS011;58859;55.132;-1.586;2024-01-27T01:57:13;1.47;;;1.00;;
71164;SDS011;58859;55.132;-1.586;2024-01-27T01:59:39;2.15;;;0.93;;
71164;SDS011;58859;55.132;-1.586;2024-01-27T02:02:06;2.80;;;0.68;;
71164;SDS011;58859;55.132;-1.586;2024-01-27T02:04:41;2.22;;;1.10;;
71164;SDS011;58859;55.132;-1.586;2024-01-27T02:07:07;1.83;;;0.70;;
71164;SDS011;58859;55.132;-1.586;2024-01-27T02:09:32;1.67;;;0.50;;
71164;SDS011;58859;55.132;-1.586;2024-01-27T02:11:58;2.27;;;0.43;;
71164;SDS011;58859;55.132;-1.586;2024-01-27T02:14:23;2.03;;;0.50;;
71164;SDS011;58859;55.132;-1.586;2024-01-27T02:16:51;1.60;;;0.93;;
71164;SDS011;58859;55.132;-1.586;2024-01-27T02:19:17;2.27;;;0.70;;
71164;SDS011;58859;55.132;-1.586;2024-01-27T02:21:42;3.10;;;0.80;;
71164;SDS011;58859;55.132;-1.586;2024-01-27T02:24:07;1.37;;;0.80;;
71164;SDS011;58859;55.132;-1.586;2024-01-27T02:26:33;2.28;;;0.90;;
71164;SDS011;58859;55.132;-1.586;2024-01-27T02:28:58;4.37;;;0.83;;
71164;SDS011;58859;55.132;-1.586;2024-01-27T02:31:24;1.33;;;0.60;;
71164;SDS011;58859;55.132;-1.586;2024-01-27T02:33:49;1.50;;;1.10;;
71164;SDS011;58859;55.132;-1.586;2024-01-27T02:36:15;1.25;;;0.30;;
71164;SDS011;58859;55.132;-1.586;2024-01-27T02:38:40;0.87;;;0.50;;
71164;SDS011;58859;55.132;-1.586;2024-01-27T02:41:06;0.70;;;0.70;;
71164;SDS011;58859;55.132;-1.586;2024-01-27T02:43:31;0.52;;;0.52;;
71164;SDS011;58859;55.132;-1.586;2024-01-27T02:45:56;3.50;;;0.87;;
71164;SDS011;58859;55.132;-1.586;2024-01-27T02:48:22;2.13;;;0.60;;
71164;SDS011;58859;55.132;-1.586;2024-01-27T02:50:47;2.10;;;0.63;;
71164;SDS011;58859;55.132;-1.586;2024-01-27T02:53:13;1.57;;;0.40;;
71164;SDS011;58859;55.132;-1.586;2024-01-27T02:55:38;5.00;;;0.70;;
71164;SDS011;58859;55.132;-1.586;2024-01-27T02:58:04;1.60;;;0.50;;
71164;SDS011;58859;55.132;-1.586;2024-01-27T03:00:29;1.03;;;0.83;;
71164;SDS011;58859;55.132;-1.586;2024-01-27T03:02:55;1.42;;;0.55;;
71164;SDS011;58859;55.132;-1.586;2024-01-27T03:05:23;1.20;;;0.67;;
71164;SDS011;58859;55.132;-1.586;2024-01-27T03:07:48;1.63;;;0.32;;
71164;SDS011;58859;55.132;-1.586;2024-01-27T03:10:14;3.00;;;0.80;;
71164;SDS011;58859;55.132;-1.586;2024-01-27T03:12:39;1.13;;;0.67;;
71164;SDS011;58859;55.132;-1.586;2024-01-27T03:15:05;1.07;;;0.57;;
71164;SDS011;58859;55.132;-1.586;2024-01-27T03:17:30;2.50;;;0.80;;
71164;SDS011;58859;55.132;-1.586;2024-01-27T03:19:56;2.10;;;0.67;;
71164;SDS011;58859;55.132;-1.586;2024-01-27T03:22:21;4.47;;;0.87;;
71164;SDS011;58859;55.132;-1.586;2024-01-27T03:24:47;2.23;;;0.63;;
71164;SDS011;58859;55.132;-1.586;2024-01-27T03:27:12;1.40;;;0.40;;
71164;SDS011;58859;55.132;-1.586;2024-01-27T03:29:37;1.80;;;0.67;;
71164;SDS011;58859;55.132;-1.586;2024-01-27T03:32:03;2.30;;;0.60;;
71164;SDS011;58859;55.132;-1.586;2024-01-27T03:34:28;1.65;;;0.63;;
71164;SDS011;58859;55.132;-1.586;2024-01-27T03:36:54;0.73;;;0.68;;
71164;SDS011;58859;55.132;-1.586;2024-01-27T03:39:19;1.33;;;0.43;;
71164;SDS011;58859;55.132;-1.586;2024-01-27T03:41:45;0.70;;;0.60;;
71164;SDS011;58859;55.132;-1.586;2024-01-27T03:44:10;0.50;;;0.50;;
71164;SDS011;58859;55.132;-1.586;2024-01-27T03:46:35;2.25;;;1.15;;
71164;SDS011;58859;55.132;-1.586;2024-01-27T03:49:04;3.13;;;0.90;;
71164;SDS011;58859;55.132;-1.586;2024-01-27T03:51:29;3.30;;;0.70;;
71164;SDS011;58859;55.132;-1.586;2024-01-27T03:53:55;3.23;;;0.77;;
71164;SDS011;58859;55.132;-1.586;2024-01-27T03:56:20;0.93;;;0.70;;
71164;SDS011;58859;55.132;-1.586;2024-01-27T03:58:45;0.70;;;0.60;;
71164;SDS011;58859;55.132;-1.586;2024-01-27T04:01:11;1.40;;;0.57;;
71164;SDS011;58859;55.132;-1.586;2024-01-27T04:03:36;0.97;;;0.53;;
71164;SDS011;58859;55.132;-1.586;2024-01-27T04:06:02;2.30;;;0.63;;
71164;SDS011;58859;55.132;-1.586;2024-01-27T04:08:29;2.27;;;0.60;;
71164;SDS011;58859;55.132;-1.586;2024-01-27T04:10:55;2.47;;;0.73;;
71164;SDS011;58859;55.132;-1.586;2024-01-27T04:13:20;2.50;;;0.83;;
71164;SDS011;58859;55.132;-1.586;2024-01-27T04:15:46;1.80;;;1.05;;
71164;SDS011;58859;55.132;-1.586;2024-01-27T04:18:11;3.23;;;0.60;;
71164;SDS011;58859;55.132;-1.586;2024-01-27T04:20:37;0.60;;;0.60;;
71164;SDS011;58859;55.132;-1.586;2024-01-27T04:23:03;5.05;;;1.13;;
71164;SDS011;58859;55.132;-1.586;2024-01-27T04:25:28;3.70;;;0.60;;
71164;SDS011;58859;55.132;-1.586;2024-01-27T04:27:54;1.15;;;0.52;;
71164;SDS011;58859;55.132;-1.586;2024-01-27T04:30:20;4.00;;;0.70;;
71164;SDS011;58859;55.132;-1.586;2024-01-27T04:32:45;3.03;;;0.73;;
71164;SDS011;58859;55.132;-1.586;2024-01-27T04:35:12;1.15;;;0.95;;
71164;SDS011;58859;55.132;-1.586;2024-01-27T04:37:38;3.70;;;0.80;;
71164;SDS011;58859;55.132;-1.586;2024-01-27T04:40:06;1.93;;;0.57;;
71164;SDS011;58859;55.132;-1.586;2024-01-27T04:42:37;3.72;;;1.08;;
71164;SDS011;58859;55.132;-1.586;2024-01-27T04:45:04;3.45;;;0.60;;
71164;SDS011;58859;55.132;-1.586;2024-01-27T04:47:30;1.73;;;0.40;;
71164;SDS011;58859;55.132;-1.586;2024-01-27T04:49:56;1.70;;;0.40;;
71164;SDS011;58859;55.132;-1.586;2024-01-27T04:52:22;2.53;;;1.05;;
71164;SDS011;58859;55.132;-1.586;2024-01-27T04:54:48;3.67;;;0.75;;
71164;SDS011;58859;55.132;-1.586;2024-01-27T04:57:13;1.43;;;0.50;;
71164;SDS011;58859;55.132;-1.586;2024-01-27T04:59:39;1.27;;;0.80;;
71164;SDS011;58859;55.132;-1.586;2024-01-27T05:02:04;4.33;;;0.73;;
71164;SDS011;58859;55.132;-1.586;2024-01-27T05:04:29;1.75;;;0.90;;
71164;SDS011;58859;55.132;-1.586;2024-01-27T05:06:55;1.83;;;0.70;;
71164;SDS011;58859;55.132;-1.586;2024-01-27T05:09:20;3.00;;;0.60;;
71164;SDS011;58859;55.132;-1.586;2024-01-27T05:11:46;2.90;;;0.90;;
71164;SDS011;58859;55.132;-1.586;2024-01-27T05:14:13;3.88;;;0.65;;
71164;SDS011;58859;55.132;-1.586;2024-01-27T05:16:38;2.63;;;0.73;;
71164;SDS011;58859;55.132;-1.586;2024-01-27T05:19:04;2.63;;;0.65;;
71164;SDS011;58859;55.132;-1.586;2024-01-27T05:21:29;1.63;;;0.60;;
71164;SDS011;58859;55.132;-1.586;2024-01-27T05:23:54;4.13;;;0.73;;
71164;SDS011;58859;55.132;-1.586;2024-01-27T05:26:20;5.03;;;0.90;;
71164;SDS011;58859;55.132;-1.586;2024-01-27T05:28:46;2.97;;;0.88;;
71164;SDS011;58859;55.132;-1.586;2024-01-27T05:31:11;1.43;;;1.07;;
71164;SDS011;58859;55.132;-1.586;2024-01-27T05:33:37;1.53;;;1.00;;
71164;SDS011;58859;55.132;-1.586;2024-01-27T05:36:04;4.60;;;0.85;;
71164;SDS011;58859;55.132;-1.586;2024-01-27T05:38:30;2.35;;;0.90;;
71164;SDS011;58859;55.132;-1.586;2024-01-27T05:40:57;2.75;;;0.75;;
71164;SDS011;58859;55.132;-1.586;2024-01-27T05:43:25;3.25;;;0.75;;
71164;SDS011;58859;55.132;-1.586;2024-01-27T05:45:51;0.73;;;0.60;;
71164;SDS011;58859;55.132;-1.586;2024-01-27T05:48:16;3.93;;;0.80;;
71164;SDS011;58859;55.132;-1.586;2024-01-27T05:50:42;2.38;;;1.00;;
71164;SDS011;58859;55.132;-1.586;2024-01-27T05:53:08;1.97;;;0.80;;
71164;SDS011;58859;55.132;-1.586;2024-01-27T05:55:33;1.73;;;0.70;;
71164;SDS011;58859;55.132;-1.586;2024-01-27T05:57:59;3.37;;;0.80;;
71164;SDS011;58859;55.132;-1.586;2024-01-27T06:00:24;4.03;;;0.70;;
71164;SDS011;58859;55.132;-1.586;2024-01-27T06:02:50;6.47;;;1.10;;
71164;SDS011;58859;55.132;-1.586;2024-01-27T06:05:15;5.53;;;0.85;;
71164;SDS011;58859;55.132;-1.586;2024-01-27T06:07:41;5.97;;;1.27;;
71164;SDS011;58859;55.132;-1.586;2024-01-27T06:10:10;1.63;;;0.70;;
71164;SDS011;58859;55.132;-1.586;2024-01-27T06:12:37;4.95;;;1.25;;
71164;SDS011;58859;55.132;-1.586;2024-01-27T06:15:04;3.10;;;0.85;;
71164;SDS011;58859;55.132;-1.586;2024-01-27T06:17:31;5.22;;;1.05;;
71164;SDS011;58859;55.132;-1.586;2024-01-27T06:19:56;6.13;;;1.10;;
71164;SDS011;58859;55.132;-1.586;2024-01-27T06:22:21;1.70;;;0.70;;
71164;SDS011;58859;55.132;-1.586;2024-01-27T06:24:47;1.75;;;0.60;;
71164;SDS011;58859;55.132;-1.586;2024-01-27T06:27:12;1.93;;;0.60;;
71164;SDS011;58859;55.132;-1.586;2024-01-27T06:29:38;3.27;;;0.97;;
71164;SDS011;58859;55.132;-1.586;2024-01-27T06:32:05;4.03;;;0.85;;
71164;SDS011;58859;55.132;-1.586;2024-01-27T06:34:31;4.43;;;0.73;;
71164;SDS011;58859;55.132;-1.586;2024-01-27T06:36:57;3.15;;;1.25;;
71164;SDS011;58859;55.132;-1.586;2024-01-27T06:39:22;7.63;;;1.07;;
71164;SDS011;58859;55.132;-1.586;2024-01-27T06:41:48;4.10;;;0.87;;
71164;SDS011;58859;55.132;-1.586;2024-01-27T06:44:13;3.40;;;1.53;;
71164;SDS011;58859;55.132;-1.586;2024-01-27T06:46:38;2.55;;;0.93;;
71164;SDS011;58859;55.132;-1.586;2024-01-27T06:49:04;3.63;;;0.90;;
71164;SDS011;58859;55.132;-1.586;2024-01-27T06:51:29;4.90;;;1.03;;
71164;SDS011;58859;55.132;-1.586;2024-01-27T06:53:55;1.60;;;0.67;;
71164;SDS011;58859;55.132;-1.586;2024-01-27T06:56:20;2.93;;;0.80;;
71164;SDS011;58859;55.132;-1.586;2024-01-27T06:58:45;1.27;;;0.50;;
71164;SDS011;58859;55.132;-1.586;2024-01-27T07:01:11;3.83;;;0.57;;
71164;SDS011;58859;55.132;-1.586;2024-01-27T07:03:36;3.40;;;0.63;;
71164;SDS011;58859;55.132;-1.586;2024-01-27T07:06:04;1.50;;;0.60;;
71164;SDS011;58859;55.132;-1.586;2024-01-27T07:08:30;3.07;;;0.70;;
71164;SDS011;58859;55.132;-1.586;2024-01-27T07:10:57;1.17;;;0.70;;
71164;SDS011;58859;55.132;-1.586;2024-01-27T07:13:23;1.13;;;0.60;;
71164;SDS011;58859;55.132;-1.586;2024-01-27T07:15:48;2.83;;;0.80;;
71164;SDS011;58859;55.132;-1.586;2024-01-27T07:18:14;2.60;;;0.63;;
71164;SDS011;58859;55.132;-1.586;2024-01-27T07:20:40;5.38;;;0.80;;
71164;SDS011;58859;55.132;-1.586;2024-01-27T07:23:05;1.00;;;0.63;;
71164;SDS011;58859;55.132;-1.586;2024-01-27T07:25:31;1.37;;;0.53;;
71164;SDS011;58859;55.132;-1.586;2024-01-27T07:27:56;3.40;;;0.88;;
71164;SDS011;58859;55.132;-1.586;2024-01-27T07:30:22;2.03;;;1.17;;
71164;SDS011;58859;55.132;-1.586;2024-01-27T07:32:47;2.13;;;0.80;;
71164;SDS011;58859;55.132;-1.586;2024-01-27T07:35:13;2.20;;;0.70;;
71164;SDS011;58859;55.132;-1.586;2024-01-27T07:37:38;2.55;;;0.80;;
71164;SDS011;58859;55.132;-1.586;2024-01-27T07:40:04;1.13;;;0.73;;
71164;SDS011;58859;55.132;-1.586;2024-01-27T07:42:30;1.90;;;0.63;;
71164;SDS011;58859;55.132;-1.586;2024-01-27T07:44:56;1.65;;;0.70;;
71164;SDS011;58859;55.132;-1.586;2024-01-27T07:47:21;1.67;;;0.70;;
71164;SDS011;58859;55.132;-1.586;2024-01-27T07:49:47;4.35;;;0.82;;
71164;SDS011;58859;55.132;-1.586;2024-01-27T07:52:13;10.57;;;0.95;;
71164;SDS011;58859;55.132;-1.586;2024-01-27T07:54:39;4.38;;;1.13;;
71164;SDS011;58859;55.132;-1.586;2024-01-27T07:57:05;3.90;;;0.90;;
71164;SDS011;58859;55.132;-1.586;2024-01-27T07:59:31;5.28;;;1.08;;
71164;SDS011;58859;55.132;-1.586;2024-01-27T08:01:57;3.30;;;0.70;;
71164;SDS011;58859;55.132;-1.586;2024-01-27T08:04:23;3.75;;;1.02;;
71164;SDS011;58859;55.132;-1.586;2024-01-27T08:06:49;1.87;;;0.83;;
71164;SDS011;58859;55.132;-1.586;2024-01-27T08:09:16;2.45;;;0.43;;
71164;SDS011;58859;55.132;-1.586;2024-01-27T08:11:42;4.75;;;0.63;;
71164;SDS011;58859;55.132;-1.586;2024-01-27T08:14:09;3.75;;;0.90;;
71164;SDS011;58859;55.132;-1.586;2024-01-27T08:16:34;2.90;;;1.23;;
71164;SDS011;58859;55.132;-1.586;2024-01-27T08:19:02;3.55;;;0.80;;
71164;SDS011;58859;55.132;-1.586;2024-01-27T08:21:28;3.00;;;0.70;;
71164;SDS011;58859;55.132;-1.586;2024-01-27T08:23:54;3.45;;;0.90;;
71164;SDS011;58859;55.132;-1.586;2024-01-27T08:26:20;4.43;;;0.73;;
71164;SDS011;58859;55.132;-1.586;2024-01-27T08:28:46;4.47;;;0.80;;
71164;SDS011;58859;55.132;-1.586;2024-01-27T08:31:12;3.50;;;0.65;;
71164;SDS011;58859;55.132;-1.586;2024-01-27T08:33:37;4.17;;;0.60;;
71164;SDS011;58859;55.132;-1.586;2024-01-27T08:36:03;3.33;;;0.80;;
71164;SDS011;58859;55.132;-1.586;2024-01-27T08:38:28;2.78;;;0.82;;
71164;SDS011;58859;55.132;-1.586;2024-01-27T08:40:54;2.47;;;0.63;;
71164;SDS011;58859;55.132;-1.586;2024-01-27T08:43:19;3.80;;;1.00;;
71164;SDS011;58859;55.132;-1.586;2024-01-27T08:45:45;5.30;;;0.77;;
71164;SDS011;58859;55.132;-1.586;2024-01-27T08:48:10;5.90;;;0.90;;
71164;SDS011;58859;55.132;-1.586;2024-01-27T08:50:36;6.90;;;1.40;;
71164;SDS011;58859;55.132;-1.586;2024-01-27T08:53:02;6.25;;;1.67;;
71164;SDS011;58859;55.132;-1.586;2024-01-27T08:55:28;1.03;;;0.50;;
71164;SDS011;58859;55.132;-1.586;2024-01-27T08:57:53;5.07;;;1.13;;
71164;SDS011;58859;55.132;-1.586;2024-01-27T09:00:19;2.47;;;0.97;;
71164;SDS011;58859;55.132;-1.586;2024-01-27T09:02:45;2.77;;;0.87;;
71164;SDS011;58859;55.132;-1.586;2024-01-27T09:05:10;2.58;;;0.60;;
71164;SDS011;58859;55.132;-1.586;2024-01-27T09:07:36;3.93;;;1.07;;
71164;SDS011;58859;55.132;-1.586;2024-01-27T09:10:02;5.32;;;0.80;;
71164;SDS011;58859;55.132;-1.586;2024-01-27T09:12:28;1.45;;;0.65;;
71164;SDS011;58859;55.132;-1.586;2024-01-27T09:14:53;5.63;;;0.90;;
71164;SDS011;58859;55.132;-1.586;2024-01-27T09:17:20;3.70;;;1.00;;
71164;SDS011;58859;55.132;-1.586;2024-01-27T09:19:45;1.95;;;0.57;;
71164;SDS011;58859;55.132;-1.586;2024-01-27T09:22:11;2.83;;;0.60;;
71164;SDS011;58859;55.132;-1.586;2024-01-27T09:24:36;1.40;;;0.80;;
71164;SDS011;58859;55.132;-1.586;2024-01-27T09:27:02;6.77;;;1.50;;
71164;SDS011;58859;55.132;-1.586;2024-01-27T09:29:29;6.80;;;1.45;;
71164;SDS011;58859;55.132;-1.586;2024-01-27T09:31:54;4.47;;;0.63;;
71164;SDS011;58859;55.132;-1.586;2024-01-27T09:34:20;3.63;;;1.33;;
71164;SDS011;58859;55.132;-1.586;2024-01-27T09:36:45;2.20;;;0.73;;
71164;SDS011;58859;55.132;-1.586;2024-01-27T09:39:11;2.10;;;0.80;;
71164;SDS011;58859;55.132;-1.586;2024-01-27T09:41:36;1.40;;;0.50;;
71164;SDS011;58859;55.132;-1.586;2024-01-27T09:44:03;5.10;;;0.70;;
71164;SDS011;58859;55.132;-1.586;2024-01-27T09:46:30;2.43;;;0.67;;
71164;SDS011;58859;55.132;-1.586;2024-01-27T09:48:56;4.07;;;0.90;;
71164;SDS011;58859;55.132;-1.586;2024-01-27T09:51:22;2.75;;;0.90;;
71164;SDS011;58859;55.132;-1.586;2024-01-27T09:53:51;6.60;;;0.95;;
71164;SDS011;58859;55.132;-1.586;2024-01-27T09:56:18;1.00;;;0.33;;
71164;SDS011;58859;55.132;-1.586;2024-01-27T09:58:44;4.22;;;0.73;;
71164;SDS011;58859;55.132;-1.586;2024-01-27T10:01:11;1.67;;;0.63;;
71164;SDS011;58859;55.132;-1.586;2024-01-27T10:03:38;4.40;;;1.65;;
71164;SDS011;58859;55.132;-1.586;2024-01-27T10:06:07;2.97;;;0.60;;
71164;SDS011;58859;55.132;-1.586;2024-01-27T10:08:35;2.23;;;0.83;;
71164;SDS011;58859;55.132;-1.586;2024-01-27T10:11:08;1.33;;;0.63;;
71164;SDS011;58859;55.132;-1.586;2024-01-27T10:13:35;5.22;;;0.73;;
71164;SDS011;58859;55.132;-1.586;2024-01-27T10:16:02;3.70;;;0.70;;
71164;SDS011;58859;55.132;-1.586;2024-01-27T10:18:32;3.40;;;0.68;;
71164;SDS011;58859;55.132;-1.586;2024-01-27T10:21:00;1.90;;;0.60;;
71164;SDS011;58859;55.132;-1.586;2024-01-27T10:23:46;4.53;;;0.70;;
71164;SDS011;58859;55.132;-1.586;2024-01-27T10:26:12;5.60;;;1.00;;
71164;SDS011;58859;55.132;-1.586;2024-01-27T10:28:37;2.83;;;0.80;;
71164;SDS011;58859;55.132;-1.586;2024-01-27T10:31:09;3.15;;;0.93;;
71164;SDS011;58859;55.132;-1.586;2024-01-27T10:33:35;2.80;;;0.50;;
71164;SDS011;58859;55.132;-1.586;2024-01-27T10:36:01;1.80;;;0.73;;
71164;SDS011;58859;55.132;-1.586;2024-01-27T10:41:00;2.38;;;0.60;;
71164;SDS011;58859;55.132;-1.586;2024-01-27T10:43:26;2.23;;;0.60;;
71164;SDS011;58859;55.132;-1.586;2024-01-27T10:45:53;1.35;;;0.50;;
71164;SDS011;58859;55.132;-1.586;2024-01-27T10:48:20;3.10;;;1.13;;
71164;SDS011;58859;55.132;-1.586;2024-01-27T10:50:48;4.00;;;0.70;;
71164;SDS011;58859;55.132;-1.586;2024-01-27T10:53:24;2.07;;;1.23;;
71164;SDS011;58859;55.132;-1.586;2024-01-27T10:55:55;2.80;;;0.90;;
71164;SDS011;58859;55.132;-1.586;2024-01-27T10:58:23;3.83;;;0.77;;
71164;SDS011;58859;55.132;-1.586;2024-01-27T11:00:50;5.68;;;1.10;;
71164;SDS011;58859;55.132;-1.586;2024-01-27T11:03:15;1.73;;;0.80;;
71164;SDS011;58859;55.132;-1.586;2024-01-27T11:05:46;3.50;;;0.70;;
71164;SDS011;58859;55.132;-1.586;2024-01-27T11:08:12;3.50;;;0.65;;
71164;SDS011;58859;55.132;-1.586;2024-01-27T11:10:39;1.40;;;1.00;;
71164;SDS011;58859;55.132;-1.586;2024-01-27T11:13:05;4.25;;;0.98;;
71164;SDS011;58859;55.132;-1.586;2024-01-27T11:15:32;5.25;;;0.63;;
71164;SDS011;58859;55.132;-1.586;2024-01-27T11:17:58;3.80;;;0.67;;
71164;SDS011;58859;55.132;-1.586;2024-01-27T11:20:25;2.08;;;0.70;;
71164;SDS011;58859;55.132;-1.586;2024-01-27T11:22:50;3.27;;;0.93;;
71164;SDS011;58859;55.132;-1.586;2024-01-27T11:25:17;5.50;;;0.82;;
71164;SDS011;58859;55.132;-1.586;2024-01-27T11:27:44;2.47;;;0.82;;
71164;SDS011;58859;55.132;-1.586;2024-01-27T11:30:27;1.83;;;0.80;;
71164;SDS011;58859;55.132;-1.586;2024-01-27T11:32:55;6.07;;;0.90;;
71164;SDS011;58859;55.132;-1.586;2024-01-27T11:35:21;2.22;;;0.65;;
71164;SDS011;58859;55.132;-1.586;2024-01-27T11:37:47;3.83;;;1.20;;
71164;SDS011;58859;55.132;-1.586;2024-01-27T11:40:13;3.03;;;1.30;;
71164;SDS011;58859;55.132;-1.586;2024-01-27T11:42:39;3.45;;;0.60;;
71164;SDS011;58859;55.132;-1.586;2024-01-27T11:45:04;3.90;;;1.15;;
71164;SDS011;58859;55.132;-1.586;2024-01-27T11:47:30;3.03;;;0.88;;
71164;SDS011;58859;55.132;-1.586;2024-01-27T11:49:56;4.07;;;0.98;;
71164;SDS011;58859;55.132;-1.586;2024-01-27T11:52:23;2.30;;;0.82;;
71164;SDS011;58859;55.132;-1.586;2024-01-27T11:54:56;1.80;;;0.75;;
71164;SDS011;58859;55.132;-1.586;2024-01-27T11:57:25;1.73;;;0.73;;
71164;SDS011;58859;55.132;-1.586;2024-01-27T11:59:51;4.97;;;0.63;;
71164;SDS011;58859;55.132;-1.586;2024-01-27T12:02:17;6.57;;;0.73;;
71164;SDS011;58859;55.132;-1.586;2024-01-27T12:04:43;4.55;;;0.98;;
71164;SDS011;58859;55.132;-1.586;2024-01-27T12:07:09;1.65;;;0.60;;
71164;SDS011;58859;55.132;-1.586;2024-01-27T12:09:35;3.63;;;0.60;;
71164;SDS011;58859;55.132;-1.586;2024-01-27T12:12:02;4.70;;;0.90;;
71164;SDS011;58859;55.132;-1.586;2024-01-27T12:14:40;2.95;;;0.70;;
71164;SDS011;58859;55.132;-1.586;2024-01-27T12:17:13;1.77;;;0.70;;
71164;SDS011;58859;55.132;-1.586;2024-01-27T12:19:39;2.60;;;0.70;;
71164;SDS011;58859;55.132;-1.586;2024-01-27T12:22:20;4.05;;;1.20;;
71164;SDS011;58859;55.132;-1.586;2024-01-27T12:24:46;3.88;;;1.20;;
71164;SDS011;58859;55.132;-1.586;2024-01-27T12:27:11;4.50;;;0.97;;
71164;SDS011;58859;55.132;-1.586;2024-01-27T12:29:37;2.33;;;0.90;;
71164;SDS011;58859;55.132;-1.586;2024-01-27T12:32:02;4.90;;;0.75;;
71164;SDS011;58859;55.132;-1.586;2024-01-27T12:34:28;4.27;;;0.70;;
71164;SDS011;58859;55.132;-1.586;2024-01-27T12:36:54;3.38;;;0.70;;
71164;SDS011;58859;55.132;-1.586;2024-01-27T12:39:20;2.67;;;0.77;;
71164;SDS011;58859;55.132;-1.586;2024-01-27T12:41:46;3.77;;;1.00;;
71164;SDS011;58859;55.132;-1.586;2024-01-27T12:44:11;2.07;;;0.50;;
71164;SDS011;58859;55.132;-1.586;2024-01-27T12:46:37;3.07;;;0.83;;
71164;SDS011;58859;55.132;-1.586;2024-01-27T12:49:02;2.97;;;0.77;;
71164;SDS011;58859;55.132;-1.586;2024-01-27T12:51:28;6.88;;;0.60;;
71164;SDS011;58859;55.132;-1.586;2024-01-27T12:53:53;4.43;;;1.03;;
71164;SDS011;58859;55.132;-1.586;2024-01-27T12:56:19;2.53;;;0.88;;
71164;SDS011;58859;55.132;-1.586;2024-01-27T12:58:44;5.57;;;0.90;;
71164;SDS011;58859;55.132;-1.586;2024-01-27T13:01:10;5.60;;;1.10;;
71164;SDS011;58859;55.132;-1.586;2024-01-27T13:03:35;2.80;;;0.68;;
71164;SDS011;58859;55.132;-1.586;2024-01-27T13:06:01;5.63;;;0.93;;
71164;SDS011;58859;55.132;-1.586;2024-01-27T13:08:27;2.78;;;0.50;;
71164;SDS011;58859;55.132;-1.586;2024-01-27T13:10:53;4.20;;;1.10;;
71164;SDS011;58859;55.132;-1.586;2024-01-27T13:13:18;3.33;;;0.70;;
71164;SDS011;58859;55.132;-1.586;2024-01-27T13:15:44;2.50;;;0.80;;
71164;SDS011;58859;55.132;-1.586;2024-01-27T13:18:10;5.70;;;0.80;;
71164;SDS011;58859;55.132;-1.586;2024-01-27T13:20:35;2.78;;;0.70;;
71164;SDS011;58859;55.132;-1.586;2024-01-27T13:23:01;4.22;;;0.93;;
71164;SDS011;58859;55.132;-1.586;2024-01-27T13:25:27;2.63;;;0.60;;
71164;SDS011;58859;55.132;-1.586;2024-01-27T13:27:52;4.67;;;1.00;;
71164;SDS011;58859;55.132;-1.586;2024-01-27T13:30:18;2.20;;;0.60;;
71164;SDS011;58859;55.132;-1.586;2024-01-27T13:32:43;2.15;;;0.45;;
71164;SDS011;58859;55.132;-1.586;2024-01-27T13:35:09;5.83;;;1.03;;
71164;SDS011;58859;55.132;-1.586;2024-01-27T13:37:35;1.90;;;0.40;;
71164;SDS011;58859;55.132;-1.586;2024-01-27T13:40:02;2.50;;;0.50;;
71164;SDS011;58859;55.132;-1.586;2024-01-27T13:42:29;2.38;;;1.08;;
71164;SDS011;58859;55.132;-1.586;2024-01-27T13:44:55;4.70;;;0.70;;
71164;SDS011;58859;55.132;-1.586;2024-01-27T13:47:21;2.45;;;0.95;;
71164;SDS011;58859;55.132;-1.586;2024-01-27T13:49:46;3.97;;;1.10;;
71164;SDS011;58859;55.132;-1.586;2024-01-27T13:52:12;1.73;;;0.57;;
71164;SDS011;58859;55.132;-1.586;2024-01-27T13:54:37;3.43;;;0.67;;
71164;SDS011;58859;55.132;-1.586;2024-01-27T13:57:03;3.37;;;0.80;;
71164;SDS011;58859;55.132;-1.586;2024-01-27T13:59:28;5.47;;;1.80;;
71164;SDS011;58859;55.132;-1.586;2024-01-27T14:01:54;3.17;;;0.90;;
71164;SDS011;58859;55.132;-1.586;2024-01-27T14:04:22;1.45;;;0.75;;
71164;SDS011;58859;55.132;-1.586;2024-01-27T14:06:49;3.90;;;1.05;;
71164;SDS011;58859;55.132;-1.586;2024-01-27T14:09:15;2.75;;;0.70;;
71164;SDS011;58859;55.132;-1.586;2024-01-27T14:11:40;3.22;;;0.90;;
71164;SDS011;58859;55.132;-1.586;2024-01-27T14:14:05;3.40;;;1.13;;
71164;SDS011;58859;55.132;-1.586;2024-01-27T14:16:31;3.37;;;1.27;;
71164;SDS011;58859;55.132;-1.586;2024-01-27T14:18:56;6.90;;;1.10;;
71164;SDS011;58859;55.132;-1.586;2024-01-27T14:21:22;3.10;;;0.90;;
71164;SDS011;58859;55.132;-1.586;2024-01-27T14:23:48;7.30;;;1.70;;
71164;SDS011;58859;55.132;-1.586;2024-01-27T14:26:14;5.22;;;1.20;;
71164;SDS011;58859;55.132;-1.586;2024-01-27T14:28:43;6.00;;;1.20;;